createdAt,value
2023-02-23T00:02:50.837Z,-1.05
2023-02-23T00:07:53.223Z,-1.10
2023-02-23T00:12:55.154Z,-1.15
2023-02-23T00:17:58.267Z,-1.20
2023-02-23T00:23:00.287Z,-1.23
2023-02-23T00:28:02.272Z,-1.28
2023-02-23T00:33:04.640Z,-1.34
2023-02-23T00:38:06.638Z,-1.38
2023-02-23T00:43:08.692Z,-1.44
2023-02-23T00:48:11.050Z,-1.46
2023-02-23T00:53:13.075Z,-1.51
2023-02-23T00:58:15.071Z,-1.57
2023-02-23T01:03:17.025Z,-1.61
2023-02-23T01:08:19.395Z,-1.67
2023-02-23T01:13:22.862Z,-1.71
2023-02-23T01:18:24.911Z,-1.74
2023-02-23T01:23:26.999Z,-1.81
2023-02-23T01:28:29.012Z,-1.85
2023-02-23T01:33:31.476Z,-1.90
2023-02-23T01:38:33.493Z,-1.94
2023-02-23T01:43:37.368Z,-1.98
2023-02-23T01:48:40.804Z,-2.00
2023-02-23T01:53:47.287Z,-2.04
2023-02-23T01:58:54.992Z,-2.08
2023-02-23T02:04:00.596Z,-2.13
2023-02-23T02:09:08.167Z,-2.16
2023-02-23T02:14:14.344Z,-2.20
2023-02-23T02:19:31.507Z,-2.26
2023-02-23T02:25:06.943Z,-2.29
2023-02-23T02:30:45.915Z,-2.34
2023-02-23T02:36:22.113Z,-2.38
2023-02-23T02:41:43.033Z,-2.41
2023-02-23T02:46:50.295Z,-2.44
2023-02-23T02:52:09.056Z,-2.49
2023-02-23T02:57:13.345Z,-2.52
2023-02-23T03:02:41.966Z,-2.53
2023-02-23T03:08:36.515Z,-2.57
2023-02-23T03:14:18.281Z,-2.60
2023-02-23T03:19:50.321Z,-2.64
2023-02-23T03:25:19.516Z,-2.67
2023-02-23T03:30:49.560Z,-2.70
2023-02-23T03:36:14.734Z,-2.72
2023-02-23T03:41:39.516Z,-2.72
2023-02-23T03:47:02.319Z,-2.74
2023-02-23T03:52:28.889Z,-2.75
2023-02-23T03:57:52.506Z,-2.77
2023-02-23T04:03:14.791Z,-2.79
2023-02-23T04:08:38.495Z,-2.80
2023-02-23T04:13:43.708Z,-2.82
2023-02-23T04:18:45.765Z,-2.83
2023-02-23T04:23:48.104Z,-2.82
2023-02-23T04:28:50.054Z,-2.85
2023-02-23T04:33:52.016Z,-2.86
2023-02-23T04:38:54.070Z,-2.87
2023-02-23T04:43:56.006Z,-2.89
2023-02-23T04:48:58.054Z,-2.89
2023-02-23T04:54:00.506Z,-2.90
2023-02-23T04:59:02.885Z,-2.94
2023-02-23T05:04:05.053Z,-2.92
2023-02-23T05:09:07.279Z,-2.95
2023-02-23T05:14:10.491Z,-2.96
2023-02-23T05:19:12.587Z,-2.99
2023-02-23T05:24:14.601Z,-3.00
2023-02-23T05:29:16.662Z,-3.02
2023-02-23T05:34:18.713Z,-3.01
2023-02-23T05:39:21.586Z,-3.06
2023-02-23T05:44:24.614Z,-3.04
2023-02-23T05:49:26.701Z,-3.05
2023-02-23T05:54:28.689Z,-3.08
2023-02-23T05:59:30.714Z,-3.07
2023-02-23T06:04:33.349Z,-3.08
2023-02-23T06:09:35.654Z,-3.08
2023-02-23T06:14:37.755Z,-3.07
2023-02-23T06:19:39.870Z,-3.07
2023-02-23T06:24:42.024Z,-3.06
2023-02-23T06:29:44.113Z,-3.05
2023-02-23T06:34:46.221Z,-2.98
2023-02-23T06:39:49.102Z,-2.89
2023-02-23T06:44:51.212Z,-2.88
2023-02-23T06:49:53.263Z,-2.83
2023-02-23T06:54:55.272Z,-2.80
2023-02-23T06:59:57.239Z,-2.74
2023-02-23T07:04:59.349Z,-2.67
2023-02-23T07:10:01.401Z,-2.63
2023-02-23T07:15:03.552Z,-2.56
2023-02-23T07:20:06.160Z,-2.50
2023-02-23T07:25:09.395Z,-2.47
2023-02-23T07:30:12.242Z,-2.40
2023-02-23T07:35:14.309Z,-2.31
2023-02-23T07:40:16.677Z,-2.23
2023-02-23T07:45:18.796Z,-2.16
2023-02-23T07:50:21.009Z,-2.09
2023-02-23T07:55:23.111Z,-2.00
2023-02-23T08:00:25.716Z,-1.90
2023-02-23T08:05:28.509Z,-1.83
2023-02-23T08:10:30.764Z,-1.74
2023-02-23T08:15:33.153Z,-1.63
2023-02-23T08:20:35.150Z,-1.52
2023-02-23T08:25:37.122Z,-1.41
2023-02-23T08:30:41.105Z,-1.28
2023-02-23T08:35:43.269Z,-1.13
2023-02-23T08:40:45.406Z,-0.99
2023-02-23T08:45:48.496Z,-0.82
2023-02-23T08:50:51.466Z,-0.63
2023-02-23T08:56:02.034Z,-0.46
2023-02-23T09:01:04.912Z,-0.25
2023-02-23T09:06:11.541Z,-0.07
2023-02-23T09:11:13.548Z,0.13
2023-02-23T09:16:16.404Z,0.34
2023-02-23T09:21:22.584Z,0.57
2023-02-23T09:26:26.573Z,0.78
2023-02-23T09:31:29.276Z,0.97
2023-02-23T09:36:32.140Z,1.15
2023-02-23T09:41:43.365Z,1.33
2023-02-23T09:47:21.509Z,1.51
2023-02-23T09:52:28.526Z,1.74
2023-02-23T09:57:39.129Z,1.88
2023-02-23T10:03:00.896Z,2.16
2023-02-23T10:08:07.882Z,2.45
2023-02-23T10:13:49.943Z,2.68
2023-02-23T10:18:52.019Z,2.96
2023-02-23T10:24:30.321Z,3.27
2023-02-23T10:29:41.625Z,3.67
2023-02-23T10:34:46.746Z,3.93
2023-02-23T10:39:52.436Z,4.10
2023-02-23T10:44:55.276Z,4.34
2023-02-23T10:49:58.878Z,4.62
2023-02-23T10:55:08.256Z,4.95
2023-02-23T11:00:33.259Z,5.35
2023-02-23T11:05:47.731Z,5.85
2023-02-23T11:11:05.535Z,6.20
2023-02-23T11:16:14.686Z,6.47
2023-02-23T11:21:30.590Z,6.60
2023-02-23T11:26:42.707Z,6.67
2023-02-23T11:31:52.907Z,6.67
2023-02-23T11:37:01.770Z,6.68
2023-02-23T11:42:18.178Z,6.80
2023-02-23T11:47:23.374Z,6.81
2023-02-23T11:52:28.289Z,6.89
2023-02-23T11:57:33.925Z,6.93
2023-02-23T12:02:50.298Z,6.97
2023-02-23T12:08:15.184Z,7.00
2023-02-23T12:13:36.878Z,7.04
2023-02-23T12:19:08.603Z,7.05
2023-02-23T12:24:37.469Z,7.09
2023-02-23T12:29:55.592Z,7.11
2023-02-23T12:35:04.092Z,7.15
2023-02-23T12:40:38.446Z,7.19
2023-02-23T12:45:53.160Z,7.21
2023-02-23T12:50:58.740Z,7.26
2023-02-23T12:56:19.675Z,7.27
2023-02-23T13:01:32.118Z,7.31
2023-02-23T13:06:39.400Z,7.32
2023-02-23T13:11:59.467Z,7.36
2023-02-23T13:17:31.665Z,7.37
2023-02-23T13:22:44.284Z,7.40
2023-02-23T13:27:52.227Z,7.40
2023-02-23T13:32:55.811Z,7.37
2023-02-23T13:38:30.503Z,7.35
2023-02-23T13:43:47.769Z,7.33
2023-02-23T13:49:41.961Z,7.29
2023-02-23T13:54:57.671Z,7.25
2023-02-23T14:00:00.463Z,7.22
2023-02-23T14:05:25.126Z,7.20
2023-02-23T14:10:38.958Z,7.17
2023-02-23T14:15:50.147Z,7.14
2023-02-23T14:20:58.321Z,7.13
2023-02-23T14:26:30.539Z,7.10
2023-02-23T14:31:34.454Z,7.03
2023-02-23T14:36:44.918Z,7.00
2023-02-23T14:41:56.550Z,6.95
2023-02-23T14:47:09.961Z,6.89
2023-02-23T14:52:24.917Z,6.83
2023-02-23T14:57:27.145Z,6.77
2023-02-23T15:02:31.390Z,6.71
2023-02-23T15:07:40.724Z,6.62
2023-02-23T15:12:43.768Z,6.54
2023-02-23T15:17:48.883Z,6.48
2023-02-23T15:22:55.527Z,6.43
2023-02-23T15:27:58.061Z,6.35
2023-02-23T15:33:01.005Z,6.27
2023-02-23T15:38:13.973Z,6.21
2023-02-23T15:43:20.557Z,6.14
2023-02-23T15:48:29.370Z,6.10
2023-02-23T15:53:41.915Z,6.03
2023-02-23T15:58:56.548Z,5.96
2023-02-23T16:04:14.953Z,5.90
2023-02-23T16:09:24.467Z,5.83
2023-02-23T16:14:33.027Z,5.74
2023-02-23T16:19:41.958Z,5.70
2023-02-23T16:24:44.840Z,5.62
2023-02-23T16:29:47.635Z,5.57
2023-02-23T16:35:02.172Z,5.51
2023-02-23T16:40:05.532Z,5.45
2023-02-23T16:45:13.853Z,5.37
2023-02-23T16:50:25.385Z,5.30
2023-02-23T16:55:29.700Z,5.21
2023-02-23T17:00:34.215Z,5.19
2023-02-23T17:05:37.082Z,5.15
2023-02-23T17:10:41.828Z,5.08
2023-02-23T17:15:48.687Z,5.04
2023-02-23T17:20:53.389Z,4.99
2023-02-23T17:26:02.908Z,4.94
2023-02-23T17:31:08.476Z,4.91
2023-02-23T17:36:16.301Z,4.85
2023-02-23T17:41:21.372Z,4.81
2023-02-23T17:46:26.978Z,4.78
2023-02-23T17:51:33.366Z,4.74
2023-02-23T17:56:38.442Z,4.70
2023-02-23T18:01:41.627Z,4.67
2023-02-23T18:06:47.606Z,4.65
2023-02-23T18:11:50.788Z,4.60
2023-02-23T18:16:54.456Z,4.57
2023-02-23T18:21:58.506Z,4.51
2023-02-23T18:27:07.487Z,4.49
2023-02-23T18:32:15.016Z,4.44
2023-02-23T18:37:26.162Z,4.38
2023-02-23T18:42:32.586Z,4.36
2023-02-23T18:47:36.047Z,4.33
2023-02-23T18:52:41.503Z,4.28
2023-02-23T18:57:46.208Z,4.26
2023-02-23T19:02:49.905Z,4.26
2023-02-23T19:07:56.314Z,4.25
2023-02-23T19:13:01.085Z,4.25
2023-02-23T19:18:06.995Z,4.24
2023-02-23T19:23:13.801Z,4.23
2023-02-23T19:28:18.806Z,4.22
2023-02-23T19:33:23.769Z,4.19
2023-02-23T19:38:31.886Z,4.19
2023-02-23T19:43:35.378Z,4.19
2023-02-23T19:48:41.038Z,4.17
2023-02-23T19:53:44.922Z,4.17
2023-02-23T19:58:50.329Z,4.12
2023-02-23T20:03:58.971Z,4.11
2023-02-23T20:09:05.820Z,4.08
2023-02-23T20:14:10.815Z,4.08
2023-02-23T20:19:15.853Z,4.07
2023-02-23T20:24:21.841Z,4.03
2023-02-23T20:29:36.959Z,4.01
2023-02-23T20:34:40.385Z,4.01
2023-02-23T20:39:44.036Z,3.98
2023-02-23T20:44:48.983Z,3.98
2023-02-23T20:49:53.776Z,3.99
2023-02-23T20:54:56.601Z,3.97
2023-02-23T20:59:59.757Z,3.97
2023-02-23T21:05:03.268Z,3.95
2023-02-23T21:10:08.167Z,3.93
2023-02-23T21:15:15.774Z,3.94
2023-02-23T21:20:20.841Z,3.94
2023-02-23T21:25:28.149Z,3.92
2023-02-23T21:30:31.533Z,3.94
2023-02-23T21:35:36.440Z,3.93
2023-02-23T21:40:42.595Z,3.91
2023-02-23T21:45:48.032Z,3.90
2023-02-23T21:50:50.591Z,3.90
2023-02-23T21:55:52.989Z,3.91
2023-02-23T22:00:55.084Z,3.91
2023-02-23T22:06:01.875Z,3.89
2023-02-23T22:11:09.172Z,3.91
2023-02-23T22:16:12.022Z,3.92
2023-02-23T22:21:14.306Z,3.92
2023-02-23T22:26:18.125Z,3.93
2023-02-23T22:31:20.559Z,3.91
2023-02-23T22:36:23.172Z,3.94
2023-02-23T22:41:25.188Z,3.92
2023-02-23T22:46:27.272Z,3.94
2023-02-23T22:51:29.414Z,3.95
2023-02-23T22:56:31.703Z,3.93
2023-02-23T23:01:34.609Z,3.94
2023-02-23T23:06:38.193Z,3.95
2023-02-23T23:11:44.734Z,3.95
2023-02-23T23:16:53.480Z,3.95
2023-02-23T23:21:56.231Z,3.95
2023-02-23T23:27:01.504Z,3.97
2023-02-23T23:32:07.085Z,3.97
2023-02-23T23:37:09.236Z,3.97
2023-02-23T23:42:12.351Z,3.98
2023-02-23T23:47:15.396Z,3.97
2023-02-23T23:52:18.120Z,3.98
2023-02-23T23:57:20.159Z,3.97
